Time;durP1;ratioP1;P1;durP2;ratioP2;P2;SDS_P1;SDS_P2;PMS_P1;PMS_P2;Temp;Humidity;BMP_temperature;BMP_pressure;BME280_temperature;BME280_humidity;BME280_pressure;Samples;Min_cycle;Max_cycle;Signal;HPM_P1;HPM_P2
2021/04/24 00:00:19;;;;;;;7.20;3.30;;;6.70;1.00;;;;;;5071193;28;20421;-79
2021/04/24 00:02:53;;;;;;;8.53;3.43;;;;;;;;;;5071259;28;20899;-79
2021/04/24 00:05:39;;;;;;;5.33;2.63;;;6.60;1.00;;;;;;5084263;28;20436;-79
2021/04/24 00:08:07;;;;;;;8.43;3.30;;;6.60;1.00;;;;;;5090513;28;20400;-80
2021/04/24 00:10:36;;;;;;;6.53;3.53;;;6.60;1.00;;;;;;5091114;28;20782;-79
2021/04/24 00:13:17;;;;;;;3.70;2.97;;;;;;;;;;5090842;28;20931;-80
2021/04/24 00:16:10;;;;;;;7.53;2.90;;;6.50;1.00;;;;;;5089931;28;20401;-80
2021/04/24 00:18:41;;;;;;;7.63;3.60;;;6.50;1.00;;;;;;5090875;28;20641;-76
2021/04/24 00:21:52;;;;;;;20.60;4.30;;;6.60;1.00;;;;;;5091033;28;20388;-76
2021/04/24 00:24:18;;;;;;;14.90;3.53;;;;;;;;;;5090843;28;20385;-75
2021/04/24 00:26:47;;;;;;;14.40;4.17;;;;;;;;;;5090421;28;20886;-76
2021/04/24 00:29:23;;;;;;;10.90;3.50;;;;;;;;;;5106241;28;20810;-75
2021/04/24 00:31:59;;;;;;;6.10;2.90;;;;;;;;;;5090897;28;20900;-76
2021/04/24 00:34:35;;;;;;;19.33;4.37;;;;;;;;;;5089986;28;20400;-75
2021/04/24 00:37:12;;;;;;;7.37;3.50;;;;;;;;;;5106102;28;20863;-75
2021/04/24 00:39:38;;;;;;;7.80;3.40;;;;;;;;;;5090769;28;20805;-76
2021/04/24 00:42:04;;;;;;;11.33;4.37;;;;;;;;;;5088768;28;20478;-75
2021/04/24 00:44:35;;;;;;;10.60;4.03;;;6.70;1.00;;;;;;5070173;28;20398;-75
2021/04/24 00:47:05;;;;;;;7.33;4.07;;;;;;;;;;5077867;28;20452;-79
2021/04/24 00:49:31;;;;;;;9.20;4.10;;;;;;;;;;5084498;28;20476;-75
2021/04/24 00:51:59;;;;;;;10.60;4.10;;;;;;;;;;5073005;28;20436;-76
2021/04/24 00:54:29;;;;;;;15.80;4.23;;;;;;;;;;5072173;28;20930;-75
2021/04/24 00:57:07;;;;;;;6.40;3.53;;;6.70;1.00;;;;;;5090581;28;20389;-76
2021/04/24 00:59:41;;;;;;;9.03;3.70;;;6.60;1.00;;;;;;5085537;28;20448;-76
2021/04/24 01:02:11;;;;;;;7.07;3.30;;;;;;;;;;5073113;28;20470;-76
2021/04/24 01:04:37;;;;;;;11.07;4.00;;;6.60;1.00;;;;;;5076747;28;20837;-75
2021/04/24 01:07:06;;;;;;;8.67;3.70;;;;;;;;;;5075990;28;20414;-76
2021/04/24 01:09:35;;;;;;;13.10;4.60;;;;;;;;;;5076033;28;20542;-76
2021/04/24 01:12:05;;;;;;;8.43;4.17;;;;;;;;;;5076472;28;20400;-76
2021/04/24 01:14:41;;;;;;;5.17;3.43;;;;;;;;;;5075836;28;20417;-76
2021/04/24 01:17:11;;;;;;;10.77;4.20;;;;;;;;;;5074588;28;20440;-76
2021/04/24 01:19:53;;;;;;;8.80;4.60;;;;;;;;;;5076554;28;20445;-75
2021/04/24 01:22:19;;;;;;;8.47;3.67;;;;;;;;;;5057688;28;20466;-76
2021/04/24 01:24:47;;;;;;;6.33;3.50;;;;;;;;;;5076165;28;20864;-76
2021/04/24 01:27:29;;;;;;;9.97;3.90;;;;;;;;;;5076351;28;20798;-76
2021/04/24 01:29:55;;;;;;;12.27;4.13;;;;;;;;;;5091335;28;20759;-76
2021/04/24 01:32:23;;;;;;;9.87;4.60;;;;;;;;;;5076208;28;20389;-76
2021/04/24 01:34:59;;;;;;;5.40;3.93;;;;;;;;;;5071690;28;20509;-80
2021/04/24 01:37:46;;;;;;;7.13;3.70;;;6.40;1.00;;;;;;5055647;28;20397;-80
2021/04/24 01:40:17;;;;;;;8.93;3.50;;;6.40;1.00;;;;;;5068354;28;20444;-79
2021/04/24 01:42:47;;;;;;;8.35;3.50;;;6.40;1.00;;;;;;5075087;28;20761;-79
2021/04/24 01:45:29;;;;;;;10.30;4.10;;;;;;;;;;5075612;28;20163;-79
2021/04/24 01:47:56;;;;;;;10.30;4.97;;;6.00;1.00;;;;;;5063743;28;20454;-79
2021/04/24 01:50:26;;;;;;;6.53;3.23;;;6.50;1.00;;;;;;5075491;28;20409;-79
2021/04/24 01:53:07;;;;;;;11.03;3.93;;;6.50;1.00;;;;;;5074772;28;20390;-80
2021/04/24 01:55:34;;;;;;;5.50;3.50;;;6.40;1.00;;;;;;5062137;28;20987;-79
2021/04/24 01:58:07;;;;;;;10.33;4.23;;;;;;;;;;5055309;28;20564;-80
2021/04/24 02:00:37;;;;;;;11.83;4.30;;;6.50;1.00;;;;;;5055251;28;20401;-80
2021/04/24 02:03:07;;;;;;;9.40;3.83;;;6.40;1.00;;;;;;5055649;28;20719;-79
2021/04/24 02:05:33;;;;;;;10.37;3.80;;;;;;;;;;5055312;28;20390;-76
2021/04/24 02:08:23;;;;;;;11.27;4.20;;;6.50;1.00;;;;;;5055553;28;20441;-76
2021/04/24 02:10:53;;;;;;;12.63;4.50;;;6.50;1.00;;;;;;5073192;28;20475;-76
2021/04/24 02:13:38;;;;;;;11.40;4.50;;;6.50;1.00;;;;;;5074848;28;20466;-76
2021/04/24 02:16:34;;;;;;;9.43;4.43;;;6.50;1.00;;;;;;5075004;28;20416;-76
2021/04/24 02:19:00;;;;;;;13.47;4.60;;;;;;;;;;5075293;28;20498;-76
2021/04/24 02:21:29;;;;;;;8.03;4.23;;;;;;;;;;5075006;28;20413;-75
2021/04/24 02:23:56;;;;;;;9.87;4.37;;;6.50;1.00;;;;;;5074905;28;20722;-76
2021/04/24 02:26:23;;;;;;;17.17;5.70;;;;;;;;;;5073920;28;20413;-76
2021/04/24 02:28:49;;;;;;;18.90;5.43;;;;;;;;;;5073969;28;20733;-76
2021/04/24 02:31:17;;;;;;;11.83;4.10;;;;;;;;;;5074062;28;20932;-76
2021/04/24 02:33:43;;;;;;;8.67;4.50;;;;;;;;;;5074378;28;20397;-80
2021/04/24 02:36:23;;;;;;;7.10;4.53;;;;;;;;;;5074577;28;20497;-80
2021/04/24 02:38:51;;;;;;;10.67;4.50;;;6.50;1.00;;;;;;5073594;28;20539;-80
2021/04/24 02:41:29;;;;;;;11.90;5.10;;;;;;;;;;5073743;28;20415;-80
2021/04/24 02:43:55;;;;;;;10.60;4.90;;;;;;;;;;5074462;28;20385;-80
2021/04/24 02:46:23;;;;;;;10.67;5.63;;;;;;;;;;5070845;28;20735;-80
2021/04/24 02:48:49;;;;;;;11.10;5.00;;;;;;;;;;5066339;28;20992;-76
2021/04/24 02:51:15;;;;;;;16.83;4.83;;;;;;;;;;5064438;28;20421;-76
2021/04/24 02:53:41;;;;;;;10.97;4.73;;;;;;;;;;5055408;28;20785;-76
2021/04/24 02:56:07;;;;;;;12.80;4.30;;;;;;;;;;5072593;28;20908;-76
2021/04/24 02:58:43;;;;;;;10.87;4.93;;;;;;;;;;5074243;28;20445;-76
2021/04/24 03:01:11;;;;;;;8.60;4.20;;;;;;;;;;5074508;28;20718;-76
2021/04/24 03:03:58;;;;;;;14.37;4.90;;;6.30;1.00;;;;;;5074650;28;20842;-76
2021/04/24 03:06:35;;;;;;;11.67;5.13;;;;;;;;;;5055639;28;20413;-76
2021/04/24 03:09:05;;;;;;;9.53;4.33;;;;;;;;;;5073887;28;20733;-76
2021/04/24 03:11:32;;;;;;;8.00;4.60;;;;;;;;;;5074237;28;20420;-76
2021/04/24 03:13:59;;;;;;;9.73;4.67;;;;;;;;;;5073712;28;20409;-80
2021/04/24 03:16:29;;;;;;;8.83;4.83;;;;;;;;;;5073851;28;20384;-79
2021/04/24 03:18:55;;;;;;;7.57;4.53;;;;;;;;;;5074273;28;20449;-79
2021/04/24 03:21:29;;;;;;;8.10;4.17;;;;;;;;;;5073972;28;20400;-79
2021/04/24 03:23:56;;;;;;;14.57;5.10;;;;;;;;;;5073761;28;20467;-79
2021/04/24 03:26:29;;;;;;;8.00;4.20;;;;;;;;;;5073830;28;20748;-79
2021/04/24 03:28:59;;;;;;;14.73;4.47;;;;;;;;;;5073842;28;20385;-79
2021/04/24 03:31:29;;;;;;;14.93;5.10;;;;;;;;;;5073065;28;20547;-79
2021/04/24 03:33:55;;;;;;;15.30;5.10;;;;;;;;;;5074193;28;20414;-76
2021/04/24 03:36:29;;;;;;;9.70;4.72;;;;;;;;;;5074069;28;20997;-76
2021/04/24 03:38:59;;;;;;;12.00;5.20;;;;;;;;;;5064473;28;20681;-76
2021/04/24 03:41:29;;;;;;;9.30;5.07;;;;;;;;;;5053984;28;20390;-76
2021/04/24 03:43:59;;;;;;;9.07;4.80;;;;;;;;;;5053960;28;20606;-76
2021/04/24 03:46:25;;;;;;;15.40;5.90;;;;;;;;;;5058985;28;20912;-76
2021/04/24 03:48:59;;;;;;;8.40;4.77;;;;;;;;;;5062743;28;20452;-76
2021/04/24 03:51:29;;;;;;;8.57;4.33;;;;;;;;;;5063654;28;20451;-76
2021/04/24 03:53:59;;;;;;;14.30;5.43;;;;;;;;;;5073964;28;20873;-76
2021/04/24 03:56:29;;;;;;;10.20;5.43;;;;;;;;;;5073368;28;20179;-76
2021/04/24 03:58:59;;;;;;;11.70;5.05;;;;;;;;;;5073395;28;20575;-76
2021/04/24 04:01:29;;;;;;;8.80;4.63;;;;;;;;;;5072564;28;20175;-76
2021/04/24 04:03:59;;;;;;;10.73;5.07;;;;;;;;;;5073451;28;20365;-77
2021/04/24 04:06:29;;;;;;;8.67;4.53;;;;;;;;;;5073440;28;20163;-76
2021/04/24 04:08:55;;;;;;;8.97;4.97;;;;;;;;;;5073897;28;20442;-76
2021/04/24 04:11:23;;;;;;;11.20;5.30;;;;;;;;;;5073737;28;20400;-76
2021/04/24 04:13:49;;;;;;;10.43;4.80;;;;;;;;;;5070359;28;20183;-76
2021/04/24 04:16:17;;;;;;;11.93;5.40;;;;;;;;;;5073064;28;20919;-76
2021/04/24 04:18:43;;;;;;;11.87;5.00;;;;;;;;;;5073511;28;20457;-76
2021/04/24 04:21:12;;;;;;;27.45;6.75;;;5.60;1.00;;;;;;5055189;28;20437;-76
2021/04/24 04:23:38;;;;;;;14.60;6.10;;;;;;;;;;5064541;28;20184;-76
2021/04/24 04:26:05;;;;;;;11.40;5.50;;;;;;;;;;5065278;28;20421;-76
2021/04/24 04:28:31;;;;;;;14.38;5.22;;;;;;;;;;5053024;28;20401;-76
2021/04/24 04:31:05;;;;;;;20.70;6.17;;;;;;;;;;5063183;28;20601;-76
2021/04/24 04:33:31;;;;;;;8.30;3.93;;;;;;;;;;5072854;28;20417;-76
2021/04/24 04:36:03;;;;;;;12.20;5.53;;;;;;;;;;5076214;28;20396;-76
2021/04/24 04:38:41;;;;;;;8.27;5.00;;;;;;;;;;5077271;28;20444;-76
2021/04/24 04:41:40;;;;;;;13.70;5.40;;;5.80;1.00;;;;;;5092585;28;20409;-76
2021/04/24 04:44:06;;;;;;;10.73;4.43;;;5.90;1.00;;;;;;5076421;28;20419;-80
2021/04/24 04:47:17;;;;;;;17.60;4.70;;;6.00;1.00;;;;;;5076605;28;20496;-80
2021/04/24 04:49:43;;;;;;;13.97;5.17;;;5.80;1.00;;;;;;5076606;28;20469;-76
2021/04/24 04:52:11;;;;;;;15.70;5.00;;;5.60;1.00;;;;;;5076166;28;20444;-76
2021/04/24 04:54:41;;;;;;;10.90;4.53;;;;;;;;;;5076730;28;20174;-76
2021/04/24 04:57:11;;;;;;;12.20;5.70;;;;;;;;;;5056411;28;20397;-76
2021/04/24 04:59:41;;;;;;;14.53;6.60;;;;;;;;;;5038916;28;20398;-76
2021/04/24 05:02:11;;;;;;;10.23;4.57;;;;;;;;;;5056510;28;20850;-76
2021/04/24 05:04:37;;;;;;;10.67;5.60;;;;;;;;;;5071250;28;20450;-76
2021/04/24 05:07:05;;;;;;;12.07;5.77;;;;;;;;;;5076281;28;20421;-76
2021/04/24 05:09:35;;;;;;;10.17;4.53;;;;;;;;;;5076588;28;20962;-76
2021/04/24 05:12:17;;;;;;;12.10;5.80;;;;;;;;;;5076332;28;20756;-75
2021/04/24 05:14:59;;;;;;;10.47;5.23;;;;;;;;;;5069145;28;20425;-75
2021/04/24 05:17:29;;;;;;;13.03;5.27;;;;;;;;;;5056037;28;20479;-76
2021/04/24 05:19:59;;;;;;;9.80;5.50;;;;;;;;;;5060995;28;20414;-77
2021/04/24 05:22:25;;;;;;;22.23;5.80;;;;;;;;;;5063040;28;20811;-75
2021/04/24 05:24:53;;;;;;;10.90;5.47;;;;;;;;;;5057811;28;20995;-75
2021/04/24 05:27:31;;;;;;;9.93;5.10;;;;;;;;;;5075777;28;20871;-76
2021/04/24 05:29:59;;;;;;;7.37;4.80;;;;;;;;;;5091531;28;20578;-80
2021/04/24 05:32:29;;;;;;;15.67;5.83;;;;;;;;;;5075510;28;20412;-82
2021/04/24 05:34:59;;;;;;;20.97;6.37;;;;;;;;;;5074722;28;20417;-77
2021/04/24 05:37:29;;;;;;;12.23;5.73;;;;;;;;;;5074429;28;20750;-77
2021/04/24 05:39:59;;;;;;;7.60;4.30;;;;;;;;;;5075576;28;20865;-77
2021/04/24 05:42:25;;;;;;;13.73;5.63;;;;;;;;;;5075810;28;20401;-77
2021/04/24 05:44:53;;;;;;;11.13;5.07;;;;;;;;;;5070396;28;20496;-77
2021/04/24 05:47:20;;;;;;;10.53;4.50;;;;;;;;;;5074663;28;20451;-77
2021/04/24 05:49:47;;;;;;;11.37;4.97;;;;;;;;;;5057542;28;20468;-74
2021/04/24 05:52:35;;;;;;;12.20;6.10;;;7.80;1.00;;;;;;5072338;28;20468;-75
2021/04/24 05:55:12;;;;;;;12.20;5.10;;;7.90;1.00;;;;;;5065645;28;20417;-75
2021/04/24 05:57:41;;;;;;;12.50;5.40;;;;;;;;;;5075517;28;20393;-75
2021/04/24 06:00:19;;;;;;;12.97;5.00;;;8.00;1.00;;;;;;5074841;28;20405;-75
2021/04/24 06:02:45;;;;;;;37.07;5.47;;;8.10;1.00;;;;;;5087384;28;20413;-75
2021/04/24 06:05:11;;;;;;;9.80;4.63;;;;;;;;;;5064943;28;20417;-77
2021/04/24 06:07:47;;;;;;;12.10;6.23;;;;;;;;;;5075280;28;20167;-77
2021/04/24 06:10:23;;;;;;;12.97;5.40;;;;;;;;;;5075041;28;20396;-77
2021/04/24 06:12:53;;;;;;;22.57;6.20;;;;;;;;;;5061727;28;20405;-77
2021/04/24 06:15:29;;;;;;;23.30;6.10;;;;;;;;;;5053853;28;20777;-77
2021/04/24 06:17:59;;;;;;;10.90;5.50;;;;;;;;;;5064290;28;20427;-77
2021/04/24 06:20:29;;;;;;;15.50;6.30;;;;;;;;;;5055608;28;20390;-77
2021/04/24 06:22:59;;;;;;;11.43;4.47;;;;;;;;;;5062674;28;20477;-78
2021/04/24 06:25:29;;;;;;;9.43;5.60;;;;;;;;;;5064730;28;20508;-77
2021/04/24 06:27:59;;;;;;;11.27;6.33;;;;;;;;;;5074739;28;20445;-77
2021/04/24 06:30:29;;;;;;;10.20;5.67;;;;;;;;;;5066942;28;20410;-78
2021/04/24 06:32:59;;;;;;;17.13;6.70;;;;;;;;;;5056515;28;20878;-77
2021/04/24 06:35:25;;;;;;;12.47;6.37;;;8.80;1.00;;;;;;5074709;28;20463;-75
2021/04/24 06:37:52;;;;;;;11.27;5.00;;;8.90;1.00;;;;;;5072704;28;20417;-75
2021/04/24 06:40:24;;;;;;;20.77;7.20;;;8.90;1.00;;;;;;5074364;28;20409;-75
2021/04/24 06:42:50;;;;;;;13.83;5.23;;;;;;;;;;5072370;28;20401;-75
2021/04/24 06:45:17;;;;;;;10.77;5.77;;;8.90;1.00;;;;;;5071502;28;20401;-75
2021/04/24 06:47:44;;;;;;;15.83;6.50;;;;;;;;;;5066027;28;20453;-75
2021/04/24 06:50:11;;;;;;;11.43;5.17;;;;;;;;;;5040446;28;20466;-74
2021/04/24 06:52:37;;;;;;;14.17;6.30;;;;;;;;;;5065615;28;20406;-77
2021/04/24 06:55:18;;;;;;;11.73;5.30;;;9.20;1.00;;;;;;5054250;28;20383;-82
2021/04/24 06:57:48;;;;;;;15.53;6.03;;;9.30;1.00;;;;;;5056953;28;20410;-76
2021/04/24 07:00:17;;;;;;;19.67;6.07;;;;;;;;;;5067299;28;20413;-75
2021/04/24 07:02:43;;;;;;;12.80;6.70;;;;;;;;;;5074082;28;20423;-75
2021/04/24 07:05:17;;;;;;;12.47;5.57;;;;;;;;;;5074260;28;20386;-75
2021/04/24 07:07:47;;;;;;;18.30;7.50;;;;;;;;;;5055939;28;20480;-75
2021/04/24 07:10:58;;;;;;;10.00;5.10;;;9.40;1.00;;;;;;5074285;28;20397;-75
2021/04/24 07:13:29;;;;;;;26.37;7.50;;;;;;;;;;5067718;28;20479;-77
2021/04/24 07:16:11;;;;;;;12.67;6.50;;;;;;;;;;5060601;28;20479;-77
2021/04/24 07:18:41;;;;;;;11.37;6.17;;;;;;;;;;5071907;28;20409;-78
2021/04/24 07:21:08;;;;;;;21.83;6.80;;;;;;;;;;5073810;28;20795;-78
2021/04/24 07:23:36;;;;;;;14.20;5.73;;;;;;;;;;5071414;28;20431;-80
2021/04/24 07:26:02;;;;;;;16.33;5.93;;;10.10;1.00;;;;;;5066890;28;20462;-78
2021/04/24 07:28:29;;;;;;;19.33;6.03;;;;;;;;;;5058972;28;20449;-77
2021/04/24 07:30:55;;;;;;;19.73;5.97;;;;;;;;;;5053528;28;20778;-78
2021/04/24 07:33:35;;;;;;;10.73;5.63;;;;;;;;;;5073421;28;20473;-78
2021/04/24 07:36:11;;;;;;;12.70;6.00;;;;;;;;;;5073919;28;20396;-75
2021/04/24 07:38:47;;;;;;;20.07;6.80;;;;;;;;;;5067285;28;20424;-75
2021/04/24 07:41:29;;;;;;;15.43;5.63;;;;;;;;;;5054338;28;20428;-75
2021/04/24 07:43:55;;;;;;;14.80;6.70;;;;;;;;;;5072652;28;20452;-75
2021/04/24 07:46:29;;;;;;;14.80;6.20;;;;;;;;;;5072406;28;21257;-75
2021/04/24 07:48:59;;;;;;;10.67;5.50;;;;;;;;;;5073514;28;20474;-75
2021/04/24 07:51:29;;;;;;;16.57;5.77;;;;;;;;;;5089417;28;20762;-75
2021/04/24 07:53:55;;;;;;;17.30;5.57;;;;;;;;;;5073724;28;20800;-75
2021/04/24 07:56:23;;;;;;;11.53;5.27;;;;;;;;;;5069082;28;20878;-75
2021/04/24 07:58:59;;;;;;;17.40;5.27;;;;;;;;;;5068226;28;20969;-76
2021/04/24 08:01:25;;;;;;;18.43;6.30;;;;;;;;;;5089024;28;20915;-75
2021/04/24 08:04:06;;;;;;;20.83;5.63;;;10.90;1.00;;;;;;5073929;28;20390;-75
2021/04/24 08:06:35;;;;;;;15.17;6.03;;;;;;;;;;5055896;28;20790;-79
2021/04/24 08:09:06;;;;;;;9.83;5.07;;;10.80;1.00;;;;;;5074838;28;20461;-79
2021/04/24 08:11:32;;;;;;;15.00;6.27;;;10.80;1.00;;;;;;5067196;28;20478;-76
2021/04/24 08:14:11;;;;;;;17.57;6.20;;;;;;;;;;5071635;28;20433;-76
2021/04/24 08:16:37;;;;;;;9.20;4.90;;;;;;;;;;5046708;28;20453;-74
2021/04/24 08:19:05;;;;;;;22.50;5.90;;;;;;;;;;5073180;28;20490;-77
2021/04/24 08:21:35;;;;;;;15.43;5.53;;;;;;;;;;5070626;28;20777;-77
2021/04/24 08:24:05;;;;;;;9.10;4.97;;;;;;;;;;5076792;28;20466;-80
2021/04/24 08:26:53;;;;;;;20.37;6.10;;;11.50;1.00;;;;;;5089720;28;20923;-79
2021/04/24 08:29:19;;;;;;;23.73;5.70;;;;;;;;;;5058178;28;20452;-78
2021/04/24 08:31:47;;;;;;;22.87;6.37;;;;;;;;;;5076750;28;20390;-78
2021/04/24 08:34:25;;;;;;;10.80;4.90;;;;;;;;;;5074569;28;20889;-78
2021/04/24 08:36:53;;;;;;;15.57;5.27;;;11.90;1.00;;;;;;5077002;28;20516;-76
2021/04/24 08:39:19;;;;;;;12.07;4.63;;;;;;;;;;5077097;28;20440;-75
2021/04/24 08:41:53;;;;;;;12.20;5.20;;;;;;;;;;5083738;28;20425;-75
2021/04/24 08:44:29;;;;;;;11.60;5.23;;;;;;;;;;5076462;28;20459;-75
2021/04/24 08:47:07;;;;;;;18.73;5.63;;;11.90;1.00;;;;;;5076748;28;20429;-75
2021/04/24 08:49:35;;;;;;;13.13;5.60;;;;;;;;;;5076484;28;21016;-76
2021/04/24 08:52:05;;;;;;;17.03;6.50;;;;;;;;;;5076898;28;20406;-78
2021/04/24 08:55:22;;;;;;;14.07;4.90;;;12.20;1.00;;;;;;5076004;28;20769;-79
2021/04/24 08:58:17;;;;;;;11.70;5.00;;;12.10;1.00;;;;;;5058056;28;20539;-79
2021/04/24 09:01:11;;;;;;;12.47;5.70;;;12.30;1.00;;;;;;5071501;28;20512;-78
2021/04/24 09:04:10;;;;;;;9.80;3.70;;;;;;;;;;5055085;28;20414;-79
2021/04/24 09:06:48;;;;;;;9.80;4.30;;;;;;;;;;5075110;28;20409;-76
2021/04/24 09:09:27;;;;;;;9.37;4.63;;;;;;;;;;5076400;28;20972;-78
2021/04/24 09:12:16;;;;;;;7.07;4.33;;;12.70;1.00;;;;;;5056222;28;20402;-78
2021/04/24 09:14:53;;;;;;;15.17;5.37;;;12.80;1.00;;;;;;5056538;28;20387;-79
2021/04/24 09:17:58;;;;;;;11.70;5.13;;;12.80;1.00;;;;;;5076272;28;20389;-79
2021/04/24 09:20:43;;;;;;;10.43;4.90;;;12.90;1.00;;;;;;5091592;28;20394;-79
2021/04/24 09:23:10;;;;;;;10.00;3.60;;;;;;;;;;5073422;28;20466;-78
2021/04/24 09:25:45;;;;;;;25.90;5.47;;;13.20;1.00;;;;;;5048714;28;20433;-79
2021/04/24 09:28:22;;;;;;;12.53;4.63;;;13.10;1.00;;;;;;5075877;28;20456;-78
2021/04/24 09:30:53;;;;;;;11.57;5.20;;;;;;;;;;5075385;28;20417;-78
2021/04/24 09:33:20;;;;;;;11.63;4.90;;;;;;;;;;5037838;28;20406;-78
2021/04/24 09:36:07;;;;;;;17.53;4.30;;;13.40;1.00;;;;;;5069412;28;20491;-78
2021/04/24 09:38:45;;;;;;;10.53;4.60;;;12.90;1.00;;;;;;5056206;28;20406;-79
2021/04/24 09:41:33;;;;;;;10.60;4.60;;;;;;;;;;5055851;28;20405;-78
2021/04/24 09:44:52;;;;;;;9.90;4.60;;;13.30;1.00;;;;;;5074063;28;20405;-79
2021/04/24 09:47:18;;;;;;;9.50;4.93;;;13.30;1.00;;;;;;5075097;28;20424;-78
2021/04/24 09:49:44;;;;;;;10.57;5.13;;;13.60;1.00;;;;;;5071119;28;20472;-78
2021/04/24 09:52:11;;;;;;;8.43;4.20;;;14.10;1.00;;;;;;5070874;28;20261;-78
2021/04/24 09:54:42;;;;;;;15.63;5.17;;;14.10;1.00;;;;;;5062188;28;20175;-78
2021/04/24 09:57:21;;;;;;;15.40;5.30;;;13.80;1.00;;;;;;5068633;28;20449;-78
2021/04/24 10:00:02;;;;;;;17.73;5.33;;;14.00;1.00;;;;;;5057535;28;20418;-80
2021/04/24 10:02:40;;;;;;;26.53;5.00;;;14.10;1.00;;;;;;5075258;28;20389;-77
2021/04/24 10:05:19;;;;;;;15.50;4.30;;;14.40;1.00;;;;;;5072684;28;21055;-80
2021/04/24 10:07:59;;;;;;;11.03;4.50;;;14.60;1.00;;;;;;5069782;28;20425;-82
2021/04/24 10:10:46;;;;;;;10.33;5.20;;;;;;;;;;5074953;28;20413;-79
2021/04/24 10:13:39;;;;;;;13.37;5.37;;;;;;;;;;5067786;28;20382;-84
2021/04/24 10:16:43;;;;;;;17.80;4.97;;;15.20;1.00;;;;;;5061816;28;20417;-81
2021/04/24 10:19:16;;;;;;;18.53;4.73;;;15.40;1.00;;;;;;5069677;28;20433;-77
2021/04/24 10:22:05;;;;;;;14.87;5.47;;;15.30;1.00;;;;;;5074093;28;20503;-78
2021/04/24 10:24:36;;;;;;;10.73;5.10;;;15.40;1.00;;;;;;5075496;28;20393;-79
2021/04/24 10:27:46;;;;;;;18.47;5.97;;;15.50;1.00;;;;;;5074409;28;20427;-80
2021/04/24 10:30:34;;;;;;;14.80;5.70;;;;;;;;;;5054790;28;20380;-78
2021/04/24 10:33:06;;;;;;;9.77;5.40;;;15.50;1.00;;;;;;5028454;28;20402;-75
2021/04/24 10:35:41;;;;;;;12.13;6.00;;;;;;;;;;5039558;28;20913;-77
2021/04/24 10:38:11;;;;;;;23.43;5.50;;;15.70;1.00;;;;;;5042305;28;20910;-76
2021/04/24 10:40:47;;;;;;;12.40;5.47;;;;;;;;;;5054142;28;20405;-75
2021/04/24 10:43:23;;;;;;;11.70;5.23;;;15.70;1.00;;;;;;5033039;28;20423;-75
2021/04/24 10:45:50;;;;;;;12.53;5.40;;;;;;;;;;5046907;28;20465;-75
2021/04/24 10:48:24;;;;;;;19.73;6.20;;;15.90;1.00;;;;;;5050112;28;20501;-75
2021/04/24 10:50:50;;;;;;;14.63;6.37;;;;;;;;;;5034658;28;20392;-75
2021/04/24 10:53:29;;;;;;;17.20;6.03;;;15.90;1.00;;;;;;5046237;28;20426;-75
2021/04/24 10:56:29;;;;;;;10.50;5.93;;;16.00;1.00;;;;;;5053074;28;20396;-75
2021/04/24 10:59:27;;;;;;;11.90;5.83;;;15.70;1.00;;;;;;5054320;28;20449;-75
2021/04/24 11:02:11;;;;;;;13.20;4.77;;;;;;;;;;4954094;29;20433;-75
2021/04/24 11:04:47;;;;;;;13.13;6.30;;;15.80;1.00;;;;;;4954024;29;20411;-75
2021/04/24 11:07:41;;;;;;;12.67;5.23;;;15.90;1.00;;;;;;4954383;29;20853;-75
2021/04/24 11:10:34;;;;;;;15.43;5.93;;;;;;;;;;4954072;29;20469;-76
2021/04/24 11:13:12;;;;;;;8.70;4.90;;;16.30;1.00;;;;;;4937881;29;20397;-76
2021/04/24 11:15:39;;;;;;;29.97;6.80;;;;;;;;;;4953263;28;20417;-75
2021/04/24 11:18:10;;;;;;;17.07;6.53;;;;;;;;;;4953621;29;20418;-76
2021/04/24 11:20:59;;;;;;;25.67;6.00;;;16.30;1.00;;;;;;4953719;29;20400;-76
2021/04/24 11:23:38;;;;;;;17.80;7.00;;;;;;;;;;4953831;29;20427;-76
2021/04/24 11:26:41;;;;;;;23.83;5.60;;;16.10;1.00;;;;;;4953616;29;20405;-76
2021/04/24 11:29:14;;;;;;;18.47;6.10;;;16.30;1.00;;;;;;4953059;29;20404;-75
2021/04/24 11:32:18;;;;;;;12.10;5.20;;;16.60;1.00;;;;;;4936585;29;20529;-75
2021/04/24 11:34:59;;;;;;;16.27;6.27;;;;;;;;;;4896770;29;20856;-75
2021/04/24 11:37:32;;;;;;;13.53;6.33;;;;;;;;;;4905691;29;20470;-75
2021/04/24 11:43:38;;;;;;;12.90;5.60;;;16.70;1.00;;;;;;4960256;28;20429;-75
2021/04/24 11:46:05;;;;;;;16.67;6.37;;;;;;;;;;4953644;29;20411;-75
2021/04/24 11:48:48;;;;;;;10.77;4.70;;;;;;;;;;4937226;29;20425;-76
2021/04/24 11:52:04;;;;;;;9.40;5.03;;;16.50;1.00;;;;;;4966789;28;20421;-75
2021/04/24 11:54:42;;;;;;;16.90;5.80;;;16.80;1.00;;;;;;4956376;28;20403;-75
2021/04/24 11:57:19;;;;;;;20.73;5.53;;;16.80;1.00;;;;;;4972343;28;20424;-76
2021/04/24 11:59:48;;;;;;;23.40;5.57;;;;;;;;;;4972322;28;20464;-76
2021/04/24 12:02:22;;;;;;;12.53;5.30;;;17.00;1.00;;;;;;4971044;28;20479;-76
2021/04/24 12:04:57;;;;;;;9.93;5.00;;;16.90;1.00;;;;;;4952828;29;20412;-80
2021/04/24 12:10:45;;;;;;;16.10;5.20;;;16.50;1.00;;;;;;5033682;28;20420;-78
2021/04/24 12:13:11;;;;;;;16.30;6.40;;;;;;;;;;5032998;28;20390;-77
2021/04/24 12:15:44;;;;;;;11.57;5.00;;;;;;;;;;5033383;28;20164;-77
2021/04/24 12:18:17;;;;;;;16.67;5.80;;;;;;;;;;5033212;28;20721;-78
2021/04/24 12:20:47;;;;;;;20.70;6.10;;;;;;;;;;5034327;28;20370;-77
2021/04/24 12:23:17;;;;;;;11.17;5.33;;;17.10;1.00;;;;;;5052902;28;20710;-78
2021/04/24 12:25:53;;;;;;;10.77;5.30;;;;;;;;;;5023561;28;20408;-81
2021/04/24 12:31:47;;;;;;;10.47;5.20;;;;;;;;;;5037230;28;20381;-81
2021/04/24 12:34:24;;;;;;;14.93;5.03;;;17.80;1.00;;;;;;5031967;28;20427;-81
2021/04/24 12:37:06;;;;;;;24.67;6.30;;;;;;;;;;5015188;28;20399;-81
2021/04/24 12:40:09;;;;;;;15.07;5.00;;;17.80;1.00;;;;;;5033144;28;20422;-81
2021/04/24 12:43:00;;;;;;;10.13;4.10;;;;;;;;;;5031787;28;20430;-78
2021/04/24 12:46:05;;;;;;;13.67;4.30;;;18.00;1.00;;;;;;5033282;28;20372;-78
2021/04/24 12:48:38;;;;;;;11.77;5.00;;;17.70;1.00;;;;;;5031890;28;20439;-78
2021/04/24 12:51:19;;;;;;;8.17;4.63;;;17.70;1.00;;;;;;5032966;28;20461;-78
2021/04/24 12:53:51;;;;;;;8.53;4.27;;;17.90;1.00;;;;;;5034827;28;20946;-78
2021/04/24 12:56:35;;;;;;;13.53;5.53;;;;;;;;;;5054879;28;20880;-77
2021/04/24 12:59:05;;;;;;;8.67;4.50;;;17.70;1.00;;;;;;5056265;28;20499;-77
2021/04/24 13:01:52;;;;;;;14.83;5.90;;;;;;;;;;5056471;28;20371;-77
2021/04/24 13:04:23;;;;;;;9.43;4.77;;;;;;;;;;5056717;28;20408;-77
2021/04/24 13:06:59;;;;;;;8.53;4.60;;;17.80;1.00;;;;;;5052908;28;20423;-77
2021/04/24 13:09:41;;;;;;;10.67;4.80;;;;;;;;;;5036499;28;20435;-78
2021/04/24 13:12:17;;;;;;;11.30;4.80;;;;;;;;;;5044320;28;20439;-78
2021/04/24 13:14:48;;;;;;;9.70;4.60;;;17.90;1.00;;;;;;5056724;28;20502;-78
2021/04/24 13:17:22;;;;;;;10.27;4.93;;;17.80;1.00;;;;;;5056445;28;20382;-77
2021/04/24 13:19:56;;;;;;;8.93;4.30;;;17.60;1.00;;;;;;5054911;28;20501;-77
2021/04/24 13:22:35;;;;;;;18.63;5.33;;;;;;;;;;5055878;28;20755;-78
2021/04/24 13:25:13;;;;;;;16.27;5.37;;;17.70;1.00;;;;;;5041926;28;20402;-77
2021/04/24 13:27:48;;;;;;;64.47;8.90;;;17.80;1.00;;;;;;5054095;28;20401;-79
2021/04/24 13:30:22;;;;;;;8.53;3.97;;;17.90;1.00;;;;;;5055652;28;20407;-79
2021/04/24 13:33:02;;;;;;;11.57;4.40;;;17.90;1.00;;;;;;5055476;28;20511;-77
2021/04/24 13:36:00;;;;;;;16.60;4.40;;;18.00;1.00;;;;;;5055690;28;20399;-78
2021/04/24 13:38:36;;;;;;;12.03;4.37;;;;;;;;;;4955748;29;20454;-78
2021/04/24 13:41:16;;;;;;;8.77;4.20;;;18.10;1.00;;;;;;4962324;28;21242;-78
2021/04/24 13:44:09;;;;;;;19.57;4.20;;;18.40;1.00;;;;;;4968877;28;20406;-77
2021/04/24 13:46:56;;;;;;;34.20;5.50;;;;;;;;;;4955725;29;20421;-77
2021/04/24 13:49:41;;;;;;;8.27;3.83;;;19.10;1.00;;;;;;4955241;29;20904;-77
2021/04/24 13:52:11;;;;;;;8.33;3.23;;;;;;;;;;4955461;29;20431;-77
2021/04/24 13:54:48;;;;;;;13.90;4.43;;;;;;;;;;4955751;29;20550;-77
2021/04/24 13:57:23;;;;;;;8.43;3.53;;;;;;;;;;4955684;29;20382;-81
2021/04/24 14:00:07;;;;;;;7.90;4.00;;;18.60;1.00;;;;;;4955584;29;20540;-81
2021/04/24 14:02:47;;;;;;;12.73;3.40;;;;;;;;;;4955282;29;20391;-81
2021/04/24 14:05:35;;;;;;;7.40;2.90;;;18.80;1.00;;;;;;4955170;29;20399;-81
2021/04/24 14:08:06;;;;;;;8.93;3.37;;;;;;;;;;4954713;28;20460;-81
2021/04/24 14:10:44;;;;;;;8.27;3.77;;;;;;;;;;4955092;29;20756;-82
2021/04/24 14:13:23;;;;;;;15.83;3.90;;;;;;;;;;4970255;28;20396;-77
2021/04/24 14:15:50;;;;;;;6.13;3.20;;;;;;;;;;5055499;28;20392;-77
2021/04/24 14:18:24;;;;;;;11.50;3.37;;;;;;;;;;5037332;28;20756;-77
2021/04/24 14:20:50;;;;;;;11.20;3.60;;;;;;;;;;5054710;28;20412;-77
2021/04/24 14:23:17;;;;;;;7.70;3.13;;;;;;;;;;5049072;28;20952;-77
2021/04/24 14:25:57;;;;;;;11.30;3.20;;;17.60;1.00;;;;;;5041904;28;20439;-77
2021/04/24 14:31:45;;;;;;;5.57;2.70;;;;;;;;;;5044111;28;20411;-80
2021/04/24 14:34:11;;;;;;;10.87;2.20;;;;;;;;;;5054629;28;20382;-80
2021/04/24 14:36:37;;;;;;;5.30;2.57;;;;;;;;;;5054593;28;20825;-80
2021/04/24 14:39:07;;;;;;;11.93;2.53;;;;;;;;;;5054345;28;20455;-80
2021/04/24 14:41:53;;;;;;;7.70;2.50;;;18.20;1.00;;;;;;5054683;28;20386;-80
2021/04/24 14:44:36;;;;;;;3.30;2.90;;;19.40;1.00;;;;;;5022135;28;20448;-80
2021/04/24 14:47:11;;;;;;;4.17;2.53;;;19.80;1.00;;;;;;5034477;28;20501;-79
2021/04/24 14:49:53;;;;;;;4.40;2.47;;;20.10;1.00;;;;;;5051341;28;20529;-80